Strona główna
METAR-TAF:

METAR-TAF

Lotnisko :

Port lotniczy Rutland Południowy Vermont

Rutland, Vermont, Stany Zjednoczone

Szerokość geograficzna: 43-32N, Długość geograficzna: 072-57W, wysokość: 240 m

METAR: brakujący

czas: 07:11 (11:11 UTC)

Prognoza

Raport powstał 5 godziny i 35 minut temu, godzina 05:36 UTC
Prognoza ważna od 19 godzina 06 UTC do 20 godzina 06 UTC
Wiatr 6 kt od południowy wschód
Widzialność: 10 km
Przerywane chmury na wysokości 3000 ft
Od 19 godzina 1300 UTC
Wiatr 5 kt od wschód
Widzialność: 10 km
Mało chmury na wysokości 20000 ft
Od 20 godzina 0200 UTC
Wiatr 5 kt od wschodnio-południowy wschód
Widzialność: 10 km
Mało chmury na wysokości 25000 ft

TAF: KRUT 190536Z 1906/2006 13006KT P6SM BKN030 FM191300 08005KT P6SM FEW200 FM200200 12005KT P6SM FEW250 AMD NOT SKED

Obserwacja i prognoza pogody dla ponad 4000 lotnisk (raport METAR i TAF).

Dostępne stacje oznaczono żółtymi i czerwonymi punktami na mapie.

Najedź kursorem aby zobaczyć nazwę stacji.

Kliknij aby zobaczyć obserwacje i prognozy pogody.

Aby zmienić mapę: kliknij na zielony przycisk z czarnym krzyżykiem, aby powiększyć; na zielony przycisk z myślnikiem, aby pomniejszyć; na zielone strzałki, aby przejść do map sąsiednich.


METAR-TAF: